Terminal Aerodrome Forecast
Issued by NWS

Home | Current Version | Previous Version | Graphics & Text | Print | Product List | Glossary On
Versions: 1 2 3 4 5 6 7 8 9 10 11 12
000
FTUS43 KGRB 220520
TAFAUW
TAF
KAUW 220520Z 2206/2306 02007KT P6SM SKC
     FM221000 07004KT P6SM SCT250
     FM221600 15007KT P6SM BKN140
     FM230400 13006KT P6SM BKN080=

USA.gov is the U.S. government's official web portal to all federal, state and local government web resources and services.